Time;durP1;ratioP1;P1;durP2;ratioP2;P2;SDS_P1;SDS_P2;PMS_P1;PMS_P2;Temp;Humidity;BMP_temperature;BMP_pressure;BME280_temperature;BME280_humidity;BME280_pressure;Samples;Min_cycle;Max_cycle;Signal;HPM_P1;HPM_P2
2022/07/25 00:01:20;;;;;;;13.37;9.57;;;22.70;83.20;;;22.03;61.90;97137.41;5070057;28;20400;-76
2022/07/25 00:03:47;;;;;;;11.87;9.20;;;22.70;83.30;;;21.98;61.93;97138.38;5070305;28;20452;-76
2022/07/25 00:06:13;;;;;;;11.05;9.60;;;22.70;83.50;;;21.94;62.03;97140.94;5070219;28;20734;-76
2022/07/25 00:08:39;;;;;;;11.38;9.00;;;22.60;83.80;;;21.95;62.11;97130.94;5069506;28;20407;-76
2022/07/25 00:11:05;;;;;;;11.00;8.93;;;22.60;84.00;;;21.92;62.05;97126.19;5069975;28;20461;-76
2022/07/25 00:13:31;;;;;;;11.48;9.15;;;22.60;84.10;;;21.85;62.20;97132.13;5070000;28;20734;-76
2022/07/25 00:15:57;;;;;;;12.15;9.20;;;22.50;84.40;;;21.83;62.65;97128.16;5070152;28;20423;-75
2022/07/25 00:18:23;;;;;;;15.60;9.38;;;22.50;85.60;;;21.79;62.76;97119.19;5069321;28;20396;-76
2022/07/25 00:20:50;;;;;;;10.45;8.85;;;22.50;85.20;;;21.77;62.67;97124.91;5069541;28;20509;-76
2022/07/25 00:23:16;;;;;;;14.80;9.73;;;22.40;86.10;;;21.80;62.64;97128.84;5070063;28;20419;-76
2022/07/25 00:25:42;;;;;;;10.65;8.95;;;22.50;85.50;;;21.75;62.78;97127.13;5069947;28;20454;-76
2022/07/25 00:28:08;;;;;;;11.30;9.63;;;22.40;85.50;;;21.75;62.93;97127.13;5069597;28;20411;-76
2022/07/25 00:30:34;;;;;;;12.25;9.50;;;22.40;85.80;;;21.71;62.94;97128.13;5069548;28;20404;-76
2022/07/25 00:33:00;;;;;;;11.73;9.55;;;22.40;85.90;;;21.66;63.06;97125.59;5070093;28;20406;-76
2022/07/25 00:35:26;;;;;;;10.60;9.13;;;22.40;86.40;;;21.68;63.30;97120.69;5069844;28;20403;-76
2022/07/25 00:37:53;;;;;;;10.73;9.57;;;22.40;86.60;;;21.62;63.38;97123.59;5069889;28;20400;-76
2022/07/25 00:40:19;;;;;;;11.75;9.40;;;22.30;86.90;;;21.59;63.48;97123.44;5068919;28;20404;-76
2022/07/25 00:42:45;;;;;;;11.20;9.03;;;22.30;87.10;;;21.57;63.55;97131.09;5069879;28;20533;-76
2022/07/25 00:45:11;;;;;;;10.80;9.43;;;22.20;87.50;;;21.53;63.80;97117.47;5069506;28;20396;-76
2022/07/25 00:47:37;;;;;;;10.68;9.10;;;22.20;87.80;;;21.52;63.81;97121.28;5069776;28;20399;-77
2022/07/25 00:50:04;;;;;;;10.52;9.10;;;22.20;88.00;;;21.50;63.88;97122.72;5068962;28;20519;-76
2022/07/25 00:52:30;;;;;;;12.53;10.07;;;22.20;88.20;;;21.51;63.81;97126.97;5051813;28;20896;-76
2022/07/25 00:54:57;;;;;;;12.15;9.60;;;22.20;88.30;;;21.50;63.98;97125.44;5069493;28;20410;-76
2022/07/25 00:57:23;;;;;;;11.05;9.18;;;22.20;88.30;;;21.49;63.82;97121.94;5069715;28;20395;-76
2022/07/25 00:59:49;;;;;;;10.85;9.40;;;22.20;88.40;;;21.48;64.00;97119.56;5068827;28;20778;-76
2022/07/25 01:02:15;;;;;;;13.48;9.32;;;22.20;88.50;;;21.47;63.83;97124.16;5069372;28;20424;-76
2022/07/25 01:04:41;;;;;;;11.75;9.35;;;22.20;88.60;;;21.45;63.81;97122.91;5069597;28;20928;-76
2022/07/25 01:07:07;;;;;;;10.63;9.20;;;22.10;88.70;;;21.44;64.06;97119.44;5069588;28;20396;-76
2022/07/25 01:09:33;;;;;;;12.65;9.88;;;22.10;88.90;;;21.44;63.90;97119.44;5050707;28;20928;-76
2022/07/25 01:12:00;;;;;;;11.70;9.37;;;22.20;88.90;;;21.40;64.01;97123.09;5069625;28;20403;-75
2022/07/25 01:14:26;;;;;;;11.27;9.52;;;22.00;89.10;;;21.40;64.09;97120.41;5069646;28;20873;-76
2022/07/25 01:16:52;;;;;;;12.75;9.65;;;22.10;89.30;;;21.39;64.25;97122.31;5069479;28;20514;-76
2022/07/25 01:19:18;;;;;;;11.95;9.82;;;22.00;89.40;;;21.42;63.98;97126.28;5050800;28;20403;-76
2022/07/25 01:21:45;;;;;;;17.08;11.23;;;22.10;89.60;;;21.51;63.78;97119.69;5069264;28;20400;-76
2022/07/25 01:24:11;;;;;;;20.90;11.35;;;22.10;89.50;;;21.57;63.51;97112.22;5069313;28;20411;-76
2022/07/25 01:26:38;;;;;;;17.70;11.60;;;22.20;89.10;;;21.63;63.38;97102.81;5069435;28;20403;-75
2022/07/25 01:29:04;;;;;;;18.48;11.35;;;22.20;88.90;;;21.69;63.34;97100.72;5068737;28;20414;-76
2022/07/25 01:31:30;;;;;;;18.40;11.32;;;22.20;88.70;;;21.77;62.91;97097.16;5070956;28;20487;-76
2022/07/25 01:33:56;;;;;;;22.80;11.35;;;22.30;88.20;;;21.82;62.26;97099.66;5073052;28;20889;-76
2022/07/25 01:36:22;;;;;;;18.87;11.00;;;22.40;87.50;;;21.85;61.85;97099.78;5073147;28;20399;-76
2022/07/25 01:38:49;;;;;;;18.60;10.70;;;22.40;86.70;;;21.89;62.08;97097.19;5072537;28;20939;-76
2022/07/25 01:41:15;;;;;;;15.57;10.52;;;22.40;86.80;;;21.85;62.26;97097.09;5072748;28;20404;-76
2022/07/25 01:43:41;;;;;;;15.00;10.15;;;22.40;87.00;;;21.86;62.22;97093.28;5072838;28;20465;-76
2022/07/25 01:46:07;;;;;;;14.95;9.73;;;22.40;86.80;;;21.83;61.96;97090.44;5072882;28;20869;-76
2022/07/25 01:48:33;;;;;;;14.15;9.88;;;22.40;86.60;;;21.79;61.93;97089.53;5072166;28;20421;-75
2022/07/25 01:50:59;;;;;;;14.18;10.10;;;22.40;86.30;;;21.75;61.97;97096.69;5072397;28;20410;-75
2022/07/25 01:53:25;;;;;;;14.82;9.75;;;22.30;86.40;;;21.71;62.05;97085.81;5072766;28;20400;-76
2022/07/25 01:55:52;;;;;;;13.70;10.15;;;22.30;87.20;;;21.68;62.19;97089.16;5072749;28;20396;-75
2022/07/25 01:58:18;;;;;;;19.47;10.47;;;22.30;86.70;;;21.64;62.50;97088.25;5072198;28;20399;-76
2022/07/25 02:00:44;;;;;;;15.48;10.48;;;22.30;87.10;;;21.61;62.51;97086.97;5072265;28;20395;-76
2022/07/25 02:03:28;;;;;;;20.80;10.38;;;22.20;87.20;;;21.58;62.55;97089.53;5072707;28;20868;-76
2022/07/25 02:05:55;;;;;;;14.13;9.73;;;22.20;87.40;;;21.49;62.86;97076.16;5072558;28;20487;-75
2022/07/25 02:08:22;;;;;;;13.73;10.00;;;22.10;87.50;;;21.48;62.85;97079.19;5071989;28;20423;-76
2022/07/25 02:10:48;;;;;;;12.77;10.18;;;22.10;87.60;;;21.42;62.67;97069.72;5085400;22;20855;-76
2022/07/25 02:13:15;;;;;;;14.20;10.17;;;22.00;87.50;;;21.37;63.01;97069.91;5072552;28;20499;-76
2022/07/25 02:15:41;;;;;;;12.88;10.13;;;22.00;87.80;;;21.35;62.53;97070.22;5072401;28;20399;-76
2022/07/25 02:18:07;;;;;;;11.82;9.32;;;22.00;87.50;;;21.31;62.76;97077.38;5071862;28;20407;-75
2022/07/25 02:20:33;;;;;;;13.50;10.48;;;21.90;87.40;;;21.27;62.72;97070.31;5063538;28;20397;-77
2022/07/25 02:22:59;;;;;;;15.38;9.30;;;21.90;87.60;;;21.19;62.63;97069.25;5052430;28;20401;-77
2022/07/25 02:25:25;;;;;;;15.43;9.30;;;21.90;87.40;;;21.21;62.33;97064.31;5052107;28;20745;-77
2022/07/25 02:27:51;;;;;;;12.43;8.93;;;21.80;87.10;;;21.17;62.28;97064.19;5052219;28;20558;-77
2022/07/25 02:30:18;;;;;;;13.67;9.27;;;21.80;87.00;;;21.16;62.00;97059.09;5051089;28;20420;-76
2022/07/25 02:32:44;;;;;;;11.57;9.02;;;21.80;86.70;;;21.10;62.14;97060.41;5052112;28;20412;-77
2022/07/25 02:35:10;;;;;;;12.95;9.07;;;21.70;86.50;;;21.09;62.17;97053.44;5051960;28;20410;-77
2022/07/25 02:37:36;;;;;;;11.07;8.40;;;21.70;86.60;;;21.05;62.16;97064.06;5052165;28;20455;-77
2022/07/25 02:40:03;;;;;;;11.95;8.90;;;21.70;86.60;;;20.98;62.05;97057.63;5051245;28;20410;-77
2022/07/25 02:42:29;;;;;;;11.27;8.63;;;21.60;86.40;;;20.95;62.08;97047.53;5051595;28;20808;-77
2022/07/25 02:44:55;;;;;;;11.90;8.80;;;21.60;86.70;;;20.94;62.20;97052.09;5051613;28;20499;-77
2022/07/25 02:47:22;;;;;;;10.75;8.60;;;21.50;86.90;;;20.86;62.46;97042.97;5051917;28;20406;-77
2022/07/25 02:49:48;;;;;;;11.32;8.65;;;21.50;87.00;;;20.87;62.67;97054.53;5051021;28;20421;-77
2022/07/25 02:52:14;;;;;;;9.77;8.20;;;21.50;87.20;;;20.84;62.44;97050.56;5051451;28;20409;-77
2022/07/25 02:54:41;;;;;;;11.27;8.50;;;21.50;86.90;;;20.82;62.37;97052.03;5051804;28;20405;-77
2022/07/25 02:57:07;;;;;;;10.57;8.23;;;21.50;86.90;;;20.78;62.67;97056.47;5051699;28;20524;-77
2022/07/25 02:59:33;;;;;;;14.10;8.98;;;21.40;88.00;;;20.76;63.07;97051.41;5050829;28;20394;-76
2022/07/25 03:01:59;;;;;;;11.63;8.73;;;21.40;87.80;;;20.79;63.10;97052.66;5051389;28;20760;-77
2022/07/25 03:04:26;;;;;;;10.05;8.30;;;21.40;88.10;;;20.81;62.83;97045.06;5051457;28;20463;-76
2022/07/25 03:06:52;;;;;;;10.35;8.00;;;21.40;87.80;;;20.80;62.50;97054.25;5051462;28;20466;-76
2022/07/25 03:09:18;;;;;;;11.38;8.70;;;21.40;87.50;;;20.75;62.76;97052.50;5050674;28;20421;-78
2022/07/25 03:11:44;;;;;;;11.57;8.38;;;21.40;87.70;;;20.72;63.00;97053.19;5051010;28;20416;-78
2022/07/25 03:14:10;;;;;;;13.02;8.52;;;21.40;87.80;;;20.71;62.91;97050.81;5051201;28;20496;-77
2022/07/25 03:16:36;;;;;;;10.53;8.43;;;21.40;88.00;;;20.68;63.01;97051.44;5051189;28;20405;-77
2022/07/25 03:19:02;;;;;;;12.85;8.73;;;21.30;88.20;;;20.63;63.19;97041.66;5050821;28;20412;-76
2022/07/25 03:21:29;;;;;;;13.10;8.93;;;21.30;88.50;;;20.60;63.48;97039.63;5050932;28;20432;-77
2022/07/25 03:23:55;;;;;;;13.32;8.60;;;21.20;88.80;;;20.56;63.59;97036.00;5051009;28;20433;-76
2022/07/25 03:26:21;;;;;;;11.75;8.75;;;21.20;89.00;;;20.59;63.44;97042.66;5051014;28;20470;-77
2022/07/25 03:28:47;;;;;;;11.50;8.85;;;21.20;89.10;;;20.57;63.62;97028.72;5050271;28;20819;-77
2022/07/25 03:31:13;;;;;;;11.82;9.30;;;21.20;89.10;;;20.60;63.48;97030.78;5065945;28;20410;-77
2022/07/25 03:33:39;;;;;;;11.90;9.13;;;21.20;89.20;;;20.57;63.42;97026.03;5050573;28;20397;-77
2022/07/25 03:36:06;;;;;;;13.82;9.27;;;21.20;89.20;;;20.57;63.78;97023.34;5051042;28;20402;-76
2022/07/25 03:38:33;;;;;;;13.63;9.07;;;21.20;89.50;;;20.56;63.56;97025.25;5050219;28;20412;-77
2022/07/25 03:40:59;;;;;;;12.80;9.60;;;21.20;89.30;;;20.52;63.65;97023.56;5050489;28;20401;-77
2022/07/25 03:43:25;;;;;;;11.77;8.43;;;21.20;89.50;;;20.51;63.63;97013.91;5050892;28;20871;-77
2022/07/25 03:45:51;;;;;;;10.30;8.43;;;21.10;89.60;;;20.50;63.85;97012.31;5050848;28;20398;-77
2022/07/25 03:48:17;;;;;;;12.70;9.07;;;21.10;89.90;;;20.46;64.19;97007.56;5049945;28;20530;-77
2022/07/25 03:50:43;;;;;;;10.95;8.65;;;21.10;90.00;;;20.42;64.32;97011.25;5048997;28;20425;-77
2022/07/25 03:53:09;;;;;;;10.48;8.50;;;21.10;90.10;;;20.35;64.44;97006.38;5050132;28;20402;-77
2022/07/25 03:55:36;;;;;;;12.63;8.80;;;21.00;90.30;;;20.35;64.71;96995.63;5050227;28;20409;-76
2022/07/25 03:58:02;;;;;;;11.18;8.70;;;21.00;90.40;;;20.31;65.12;97002.72;5049832;28;20488;-77
2022/07/25 04:00:28;;;;;;;10.80;8.40;;;21.00;90.70;;;20.28;65.15;97005.28;5050017;28;20481;-78
2022/07/25 04:02:54;;;;;;;11.35;8.32;;;21.00;90.80;;;20.23;65.37;96998.16;5050424;28;20879;-77
2022/07/25 04:05:20;;;;;;;9.82;8.38;;;21.00;91.10;;;20.22;65.83;97001.19;5050367;28;20405;-77
2022/07/25 04:07:46;;;;;;;10.55;8.52;;;20.90;91.30;;;20.18;66.06;97001.03;5050501;28;20436;-77
2022/07/25 04:10:12;;;;;;;10.18;8.02;;;20.90;91.60;;;20.15;66.31;96998.22;5049000;28;20783;-77
2022/07/25 04:12:39;;;;;;;10.90;9.27;;;20.80;91.80;;;20.12;66.46;96996.94;5050201;28;20436;-77
2022/07/25 04:15:07;;;;;;;11.32;8.57;;;20.80;92.00;;;20.13;66.20;96995.06;5049911;28;20397;-77
2022/07/25 04:17:33;;;;;;;14.30;9.65;;;20.90;92.00;;;20.17;66.21;96994.06;5050091;28;20405;-77
2022/07/25 04:19:59;;;;;;;10.30;8.23;;;20.90;92.00;;;20.13;66.53;96993.16;5050280;28;20784;-76
2022/07/25 04:22:25;;;;;;;11.77;9.40;;;20.80;92.20;;;20.10;66.47;96996.47;5059507;28;20402;-76
2022/07/25 04:24:51;;;;;;;11.77;9.73;;;20.80;92.30;;;20.11;66.73;96990.00;5059030;28;20408;-76
2022/07/25 04:27:17;;;;;;;11.30;9.35;;;20.80;92.50;;;20.12;66.97;96996.94;5063905;28;20412;-74
2022/07/25 04:29:45;;;;;;;11.60;8.73;;;20.80;92.80;;;20.10;66.90;96996.47;5058927;28;20818;-75
2022/07/25 04:32:12;;;;;;;11.68;9.10;;;20.80;92.80;;;20.12;67.25;96991.56;5052771;28;20488;-76
2022/07/25 04:34:38;;;;;;;11.40;8.55;;;20.80;93.10;;;20.10;67.38;96981.13;5049886;28;20604;-75
2022/07/25 04:37:04;;;;;;;10.88;9.02;;;20.70;93.30;;;20.12;67.42;96983.50;5052347;28;20914;-77
2022/07/25 04:39:30;;;;;;;10.80;8.83;;;20.80;93.40;;;20.14;67.62;96981.31;5049168;28;20436;-79
2022/07/25 04:41:56;;;;;;;12.02;9.13;;;20.80;93.60;;;20.16;67.85;96987.13;5047854;28;20405;-79
2022/07/25 04:44:22;;;;;;;10.48;8.88;;;20.80;93.90;;;20.21;67.99;96995.03;5049618;28;20408;-77
2022/07/25 04:46:49;;;;;;;9.63;8.32;;;20.90;94.50;;;20.27;67.87;96991.03;5049787;28;20401;-77
2022/07/25 04:49:15;;;;;;;9.68;8.40;;;20.90;94.30;;;20.40;68.02;96997.34;5048897;28;20474;-77
2022/07/25 04:51:41;;;;;;;11.47;7.80;;;21.00;94.50;;;20.52;67.47;96988.59;5048159;28;20853;-77
2022/07/25 04:54:08;;;;;;;12.90;8.77;;;21.10;94.20;;;20.67;66.47;96988.81;5049646;28;20432;-76
2022/07/25 04:56:34;;;;;;;11.82;9.23;;;21.30;93.70;;;20.82;66.20;96990.16;5049379;28;20402;-74
2022/07/25 04:59:00;;;;;;;13.43;8.90;;;21.40;93.40;;;20.97;65.29;96992.28;5048432;28;20404;-75
2022/07/25 05:01:26;;;;;;;11.52;8.77;;;21.50;92.50;;;21.13;63.99;96989.75;5048934;28;20413;-76
2022/07/25 05:03:54;;;;;;;12.85;9.48;;;21.70;91.50;;;21.29;62.45;96992.66;5049061;28;20483;-74
2022/07/25 05:06:19;;;;;;;12.48;9.20;;;21.90;90.20;;;21.46;61.81;96987.94;5052922;28;20492;-75
2022/07/25 05:08:46;;;;;;;10.45;8.68;;;22.00;89.30;;;21.61;60.83;96978.44;5053052;28;20425;-75
2022/07/25 05:11:12;;;;;;;11.23;9.30;;;22.20;87.20;;;21.77;60.50;96987.47;5052991;28;20409;-75
2022/07/25 05:13:38;;;;;;;12.87;8.83;;;22.30;86.40;;;21.91;60.64;96982.56;5052113;28;20408;-76
2022/07/25 05:16:05;;;;;;;11.90;8.77;;;22.40;86.40;;;22.02;60.05;96985.66;5053704;28;20397;-75
2022/07/25 05:18:33;;;;;;;11.98;8.80;;;22.50;85.40;;;22.17;59.35;96981.53;5062489;28;20400;-74
2022/07/25 05:21:00;;;;;;;12.85;9.32;;;22.70;84.20;;;22.27;58.85;96981.06;5073102;28;20536;-75
2022/07/25 05:23:26;;;;;;;12.15;8.82;;;22.80;83.40;;;22.34;59.05;96986.69;5073339;28;20395;-76
2022/07/25 05:25:52;;;;;;;10.05;8.50;;;22.90;83.30;;;22.44;58.91;96974.69;5073221;28;21120;-75
2022/07/25 05:28:18;;;;;;;11.70;9.38;;;23.00;83.10;;;22.49;58.23;96977.13;5071413;28;20423;-75
2022/07/25 05:30:44;;;;;;;13.45;8.95;;;23.00;82.00;;;22.58;58.34;96977.81;5066673;28;20459;-76
2022/07/25 05:33:10;;;;;;;10.00;8.13;;;23.10;81.70;;;22.65;57.91;96983.44;5061922;28;20407;-75
2022/07/25 05:35:36;;;;;;;12.48;9.43;;;23.20;81.30;;;22.68;57.04;96972.75;5063344;28;20737;-75
2022/07/25 05:38:04;;;;;;;10.53;8.37;;;23.20;79.70;;;22.76;56.89;96973.78;5069664;28;20697;-77
2022/07/25 05:40:30;;;;;;;9.77;8.00;;;23.30;79.50;;;22.81;57.08;96976.25;5072499;28;20476;-75
2022/07/25 05:42:56;;;;;;;10.02;7.93;;;23.30;79.50;;;22.84;56.79;96975.59;5062687;28;20420;-75
2022/07/25 05:45:22;;;;;;;11.85;8.70;;;23.40;79.10;;;22.89;56.42;96966.44;5059824;28;20805;-75
2022/07/25 05:47:48;;;;;;;12.37;9.03;;;23.40;78.80;;;22.90;55.82;96966.13;5052905;28;20401;-76
2022/07/25 05:50:14;;;;;;;12.63;8.63;;;23.40;77.60;;;22.94;56.04;96960.81;5051811;28;20420;-77
2022/07/25 05:52:40;;;;;;;11.87;8.83;;;23.40;77.60;;;23.06;54.78;96966.97;5052870;28;20424;-76
2022/07/25 05:55:08;;;;;;;10.77;8.33;;;23.50;76.60;;;23.09;55.25;96970.91;5052681;28;20736;-75
2022/07/25 05:57:34;;;;;;;12.45;8.85;;;23.60;76.50;;;23.11;55.77;96960.53;5057895;28;20403;-76
2022/07/25 06:00:01;;;;;;;11.65;8.48;;;23.60;76.80;;;23.14;55.36;96967.97;5062603;28;20404;-75
2022/07/25 06:02:27;;;;;;;9.35;8.00;;;23.60;76.20;;;23.16;55.33;96960.28;5051755;28;20401;-75
2022/07/25 06:04:53;;;;;;;10.40;8.07;;;23.60;76.40;;;23.21;55.35;96951.19;5052171;28;20420;-75
2022/07/25 06:07:19;;;;;;;13.32;8.18;;;23.70;76.50;;;23.26;55.16;96954.41;5060177;28;20441;-74
2022/07/25 06:09:45;;;;;;;13.20;8.68;;;23.70;77.00;;;23.42;54.12;96954.47;5051725;28;20922;-75
2022/07/25 06:12:12;;;;;;;10.95;8.30;;;23.80;74.80;;;23.45;54.53;96943.00;5054423;28;20420;-74
2022/07/25 06:14:38;;;;;;;10.18;8.38;;;24.00;75.00;;;23.56;53.85;96937.88;5058146;28;20901;-75
2022/07/25 06:17:04;;;;;;;10.30;8.23;;;24.00;74.30;;;23.57;54.17;96942.16;5051791;28;20442;-75
2022/07/25 06:19:30;;;;;;;13.98;8.48;;;24.10;74.40;;;23.63;53.86;96938.06;5058186;28;20902;-74
2022/07/25 06:21:56;;;;;;;12.43;9.30;;;24.10;74.00;;;23.72;53.33;96944.91;5071888;28;20506;-74
2022/07/25 06:24:22;;;;;;;10.90;8.20;;;24.20;73.20;;;23.79;53.92;96939.66;5071345;28;20396;-75
2022/07/25 06:26:48;;;;;;;11.98;8.57;;;24.20;73.90;;;23.87;53.34;96929.81;5053533;28;20397;-75
2022/07/25 06:29:16;;;;;;;12.18;8.20;;;24.30;73.60;;;23.92;53.65;96940.38;5051510;28;20898;-74
2022/07/25 06:31:42;;;;;;;9.50;7.85;;;24.40;73.70;;;23.96;53.84;96930.44;5051888;28;20405;-74
2022/07/25 06:34:08;;;;;;;11.32;8.43;;;24.40;74.00;;;24.02;53.63;96933.66;5052128;28;20420;-74
2022/07/25 06:36:34;;;;;;;10.38;8.32;;;24.50;73.80;;;24.23;52.02;96931.50;5051932;28;20879;-74
2022/07/25 06:39:00;;;;;;;13.02;8.52;;;24.60;71.60;;;24.34;51.67;96937.97;5051220;28;20400;-76
2022/07/25 06:41:26;;;;;;;11.07;9.00;;;24.70;71.60;;;24.38;51.89;96922.59;5051758;28;20878;-75
2022/07/25 06:43:52;;;;;;;9.63;8.35;;;24.80;71.10;;;24.47;51.55;96927.81;5061985;28;20910;-76
2022/07/25 06:46:19;;;;;;;12.68;8.30;;;24.90;70.80;;;24.60;50.57;96930.06;5051494;28;20405;-75
2022/07/25 06:48:45;;;;;;;12.07;8.38;;;25.00;69.50;;;24.66;50.31;96934.03;5056049;28;20416;-78
2022/07/25 06:51:11;;;;;;;10.50;8.10;;;25.10;69.00;;;24.68;50.64;96937.19;5051788;28;20428;-78
2022/07/25 06:53:38;;;;;;;12.00;8.43;;;25.10;69.20;;;24.66;51.20;96934.03;5040375;28;20402;-82
2022/07/25 06:56:08;;;;;;;10.73;8.80;;;25.10;69.60;;;24.68;51.09;96934.47;5048028;28;20420;-81
2022/07/25 06:58:34;;;;;;;14.18;9.27;;;25.10;69.50;;;24.78;50.59;96935.06;5052926;28;20908;-80
2022/07/25 07:01:00;;;;;;;12.80;9.15;;;25.20;69.10;;;24.83;51.34;96938.28;5055053;28;20397;-81
2022/07/25 07:03:33;;;;;;;11.95;8.50;;;25.20;70.10;;;24.89;51.23;96936.88;5059587;28;20394;-78
2022/07/25 07:06:00;;;;;;;12.30;9.10;;;25.30;69.60;;;24.90;50.90;96935.75;5054018;28;20473;-76
2022/07/25 07:08:26;;;;;;;11.88;9.50;;;25.40;69.50;;;24.99;51.10;96930.94;5048309;28;20413;-78
2022/07/25 07:10:52;;;;;;;11.95;9.70;;;25.40;69.40;;;25.00;51.27;96929.78;5047281;28;20473;-76
2022/07/25 07:13:18;;;;;;;15.77;9.50;;;25.50;69.70;;;25.02;52.06;96935.66;5051111;28;20476;-77
2022/07/25 07:15:48;;;;;;;11.60;9.10;;;25.50;70.90;;;25.10;51.88;96936.56;5056627;28;20411;-76
2022/07/25 07:18:15;;;;;;;12.25;8.93;;;25.50;70.50;;;25.12;52.22;96933.50;5048235;28;20521;-78
2022/07/25 07:20:43;;;;;;;11.82;9.27;;;25.60;70.80;;;25.17;52.25;96936.72;5049390;28;20410;-78
2022/07/25 07:23:09;;;;;;;13.32;9.25;;;25.60;70.80;;;25.31;51.48;96933.50;5047770;28;20405;-76
2022/07/25 07:25:35;;;;;;;12.75;10.02;;;25.70;70.00;;;25.41;51.27;96930.97;5048471;28;20444;-77
2022/07/25 07:28:02;;;;;;;11.50;9.45;;;25.80;69.70;;;25.43;51.09;96939.53;5050464;28;20413;-77
2022/07/25 07:30:29;;;;;;;12.00;9.25;;;25.90;69.50;;;25.68;49.65;96934.63;5050178;28;20413;-76
2022/07/25 07:32:55;;;;;;;12.20;9.30;;;26.00;68.40;;;25.63;50.87;96939.56;5051081;28;20414;-76
2022/07/25 07:35:21;;;;;;;11.93;9.73;;;26.10;68.90;;;25.92;48.74;96930.00;5051020;28;20463;-77
2022/07/25 07:37:48;;;;;;;11.83;9.17;;;26.20;66.90;;;25.80;49.70;96923.59;5050921;28;20406;-76
2022/07/25 07:40:15;;;;;;;14.13;9.68;;;26.20;67.50;;;25.84;50.03;96926.38;5049775;28;20898;-77
2022/07/25 07:42:43;;;;;;;9.83;8.37;;;26.30;67.80;;;25.81;50.25;96918.97;5050881;28;20401;-77
2022/07/25 07:45:16;;;;;;;13.32;9.73;;;26.20;68.20;;;25.77;50.47;96915.41;5050719;28;20408;-77
2022/07/25 07:47:42;;;;;;;10.90;8.98;;;26.20;68.20;;;25.80;49.93;96914.69;5050741;28;20440;-77
2022/07/25 07:50:09;;;;;;;12.18;9.32;;;26.20;68.10;;;25.83;49.26;96922.09;5049649;28;20992;-77
2022/07/25 07:52:35;;;;;;;12.18;9.70;;;26.20;67.50;;;25.87;49.56;96920.22;5050656;28;20401;-77
2022/07/25 07:57:49;;;;;;;11.95;9.02;;;26.30;67.10;;;26.11;48.33;96921.78;5050757;28;20396;-77
2022/07/25 08:00:16;;;;;;;10.60;8.38;;;26.50;65.60;;;26.15;47.74;96920.72;5049441;28;20393;-77
2022/07/25 08:02:45;;;;;;;12.30;8.82;;;26.50;65.50;;;26.19;47.96;96918.03;5050436;28;20497;-77
2022/07/25 08:05:12;;;;;;;12.40;8.75;;;26.60;65.40;;;26.29;47.99;96916.69;5050264;28;20447;-76
2022/07/25 08:07:38;;;;;;;12.30;8.90;;;26.70;65.10;;;26.44;46.53;96923.91;5050395;28;20405;-76
2022/07/25 08:12:39;;;;;;;10.47;8.60;;;26.90;62.20;;;26.66;45.89;96919.56;5068040;28;20476;-74
2022/07/25 08:15:07;;;;;;;13.07;9.27;;;27.00;62.30;;;26.86;44.08;96913.63;5070119;28;20400;-75
2022/07/25 08:17:33;;;;;;;10.55;8.65;;;27.20;60.60;;;26.92;44.70;96919.53;5070046;28;20450;-75
2022/07/25 08:19:59;;;;;;;11.40;9.07;;;27.30;60.80;;;27.01;44.50;96917.31;5069254;28;20428;-75
2022/07/25 08:22:35;;;;;;;9.70;8.55;;;27.50;60.50;;;26.96;44.60;96923.88;5069829;28;20454;-76
2022/07/25 08:25:01;;;;;;;11.15;8.60;;;27.30;60.60;;;26.88;44.18;96916.75;5069735;28;20421;-75
2022/07/25 08:27:26;;;;;;;9.67;8.20;;;27.30;60.30;;;26.95;44.75;96908.72;5070232;28;20404;-74
2022/07/25 08:29:54;;;;;;;11.23;9.27;;;27.30;60.60;;;27.07;43.85;96923.22;5069358;28;20422;-75
2022/07/25 08:32:20;;;;;;;9.33;7.90;;;27.40;59.90;;;27.14;44.81;96918.66;5069531;28;20411;-74
2022/07/25 08:34:46;;;;;;;10.60;7.93;;;27.50;60.50;;;27.20;45.33;96914.47;5069829;28;20399;-75
2022/07/25 08:37:11;;;;;;;9.85;7.72;;;27.50;61.20;;;27.31;45.52;96915.38;5069682;28;20437;-75
2022/07/25 08:39:40;;;;;;;9.45;8.20;;;27.70;61.60;;;27.56;41.72;96929.28;5068647;28;20404;-75
2022/07/25 08:42:07;;;;;;;8.85;7.95;;;27.80;57.60;;;27.69;41.31;96927.84;5069439;28;20417;-75
2022/07/25 08:44:37;;;;;;;8.30;7.25;;;28.00;57.30;;;27.72;42.39;96916.22;5069964;28;20404;-75
2022/07/25 08:47:05;;;;;;;8.55;7.65;;;28.00;57.90;;;27.82;42.68;96922.16;5066768;28;20769;-75
2022/07/25 08:49:32;;;;;;;10.70;7.57;;;28.10;58.80;;;27.86;43.56;96915.56;5068869;28;20785;-76
2022/07/25 08:51:58;;;;;;;11.38;8.20;;;28.10;59.10;;;28.13;39.88;96919.69;5069392;28;20407;-75
2022/07/25 08:54:24;;;;;;;8.35;7.45;;;28.40;56.00;;;28.55;36.95;96909.53;5069567;28;20818;-76
2022/07/25 08:56:50;;;;;;;7.72;6.93;;;28.80;52.60;;;28.45;38.88;96925.41;5069613;28;20410;-75
2022/07/25 08:59:16;;;;;;;10.90;8.50;;;28.70;54.10;;;28.53;38.28;96914.56;5065552;28;20467;-76
2022/07/25 09:01:42;;;;;;;8.98;7.75;;;28.90;53.70;;;28.50;38.59;96916.88;5066148;28;20400;-75
2022/07/25 09:04:09;;;;;;;10.77;7.80;;;28.80;53.70;;;28.62;38.64;96913.06;5065057;28;20427;-75
2022/07/25 09:06:36;;;;;;;9.07;7.63;;;28.90;53.90;;;28.71;38.84;96913.53;5063414;28;20399;-76
2022/07/25 09:09:04;;;;;;;9.30;7.57;;;29.00;54.00;;;28.77;38.43;96911.25;5066563;28;20422;-76
2022/07/25 09:11:32;;;;;;;10.13;8.10;;;29.10;53.50;;;28.94;37.25;96913.28;5067877;28;20458;-75
2022/07/25 09:14:03;;;;;;;8.70;7.80;;;29.20;52.50;;;29.06;38.00;96918.38;5069227;28;20408;-74
2022/07/25 09:16:32;;;;;;;9.15;7.43;;;29.30;53.10;;;29.16;37.07;96909.47;5069597;28;20761;-75
2022/07/25 09:19:12;;;;;;;8.00;6.85;;;29.50;52.40;;;29.20;38.12;96904.03;5063425;28;20789;-76
2022/07/25 09:21:40;;;;;;;10.52;7.90;;;29.50;53.30;;;29.34;36.70;96908.75;5064104;28;20458;-75
2022/07/25 09:24:11;;;;;;;9.23;7.90;;;29.60;52.60;;;29.38;37.14;96906.84;5069273;28;20400;-76
2022/07/25 09:26:49;;;;;;;10.60;8.60;;;29.70;52.60;;;29.46;37.37;96895.59;5069409;28;20968;-76
2022/07/25 09:29:18;;;;;;;9.52;8.27;;;29.70;52.30;;;29.48;37.64;96895.97;5068678;28;20415;-75
2022/07/25 09:31:45;;;;;;;8.65;7.68;;;29.70;52.70;;;29.61;37.34;96890.94;5051291;28;20453;-76
2022/07/25 09:34:16;;;;;;;10.70;8.07;;;29.80;52.10;;;29.64;37.18;96893.66;5069333;28;20407;-75
2022/07/25 09:36:52;;;;;;;10.57;8.80;;;29.90;52.20;;;29.82;37.66;96898.38;5069096;28;20408;-75
2022/07/25 09:39:18;;;;;;;9.55;7.90;;;30.00;52.60;;;29.88;37.85;96894.06;5068803;28;20443;-74
2022/07/25 09:41:44;;;;;;;9.98;7.93;;;30.20;52.90;;;29.93;38.40;96890.97;5069066;28;20407;-73
2022/07/25 09:44:15;;;;;;;8.77;7.63;;;30.20;53.30;;;30.00;38.72;96893.72;5069298;28;20402;-74
2022/07/25 09:46:41;;;;;;;10.63;7.75;;;30.30;53.90;;;30.11;38.33;96894.50;5069381;28;20413;-74
2022/07/25 09:49:08;;;;;;;10.33;7.50;;;30.30;53.80;;;30.26;37.84;96896.06;5068523;28;20469;-74
2022/07/25 09:51:36;;;;;;;12.27;8.07;;;30.50;53.00;;;30.47;34.51;96892.50;5069339;28;20438;-74
2022/07/25 09:54:02;;;;;;;9.07;8.18;;;30.70;49.90;;;30.63;34.22;96889.38;5072755;28;20404;-73
2022/07/25 09:56:28;;;;;;;9.65;7.93;;;31.00;49.20;;;30.80;34.07;96887.78;5072920;28;20418;-74
2022/07/25 09:58:54;;;;;;;8.93;7.78;;;31.20;49.30;;;31.00;32.51;96897.09;5072207;28;20411;-73
2022/07/25 10:01:32;;;;;;;8.45;7.55;;;31.40;47.30;;;31.14;33.22;96894.31;5072379;28;20423;-73
2022/07/25 10:04:11;;;;;;;8.65;7.70;;;31.60;47.60;;;31.27;34.48;96891.94;5072474;28;20404;-73
2022/07/25 10:06:48;;;;;;;9.43;7.95;;;31.70;49.00;;;31.46;34.99;96884.00;5072645;28;20407;-74
2022/07/25 10:09:15;;;;;;;7.70;6.90;;;31.80;49.80;;;31.57;35.33;96883.94;5071666;28;20439;-73
2022/07/25 10:12:02;;;;;;;8.68;7.47;;;31.90;49.80;;;31.66;35.32;96883.50;5065993;28;20413;-73
2022/07/25 10:14:28;;;;;;;9.38;8.10;;;32.00;50.00;;;31.87;30.72;96877.91;5060252;28;20413;-73
2022/07/25 10:16:55;;;;;;;9.13;7.47;;;32.20;45.10;;;31.70;31.81;96865.91;5072075;28;20392;-73